createdAt,value
2022-10-02T00:00:23.191Z,3.50
2022-10-02T00:03:00.768Z,3.93
2022-10-02T00:05:45.841Z,5.38
2022-10-02T00:08:29.061Z,5.57
2022-10-02T00:11:05.991Z,6.55
2022-10-02T00:13:47.154Z,6.78
2022-10-02T00:16:34.067Z,7.57
2022-10-02T00:19:02.476Z,7.07
2022-10-02T00:21:56.931Z,7.07
2022-10-02T00:24:48.084Z,6.68
2022-10-02T00:27:46.366Z,6.72
2022-10-02T00:30:18.053Z,7.00
2022-10-02T00:33:27.011Z,7.05
2022-10-02T00:36:34.910Z,6.95
2022-10-02T00:39:22.868Z,7.35
2022-10-02T00:42:37.624Z,7.22
2022-10-02T00:45:47.166Z,7.07
2022-10-02T00:48:39.019Z,8.30
2022-10-02T00:51:38.187Z,8.38
2022-10-02T00:54:29.447Z,8.30
2022-10-02T00:57:38.156Z,8.32
2022-10-02T01:00:13.462Z,8.98
2022-10-02T01:02:56.386Z,8.55
2022-10-02T01:05:23.874Z,8.82
2022-10-02T01:07:54.766Z,8.30
2022-10-02T01:10:25.561Z,9.02
2022-10-02T01:12:55.664Z,7.90
2022-10-02T01:15:30.810Z,8.65
2022-10-02T01:17:58.851Z,7.75
2022-10-02T01:20:48.651Z,7.05
2022-10-02T01:23:42.642Z,7.95
2022-10-02T01:26:09.926Z,8.10
2022-10-02T01:28:37.496Z,7.68
2022-10-02T01:31:14.540Z,7.88
2022-10-02T01:33:44.789Z,7.95
2022-10-02T01:36:15.002Z,8.10
2022-10-02T01:38:44.727Z,7.60
2022-10-02T01:41:12.173Z,7.68
2022-10-02T01:43:59.458Z,7.85
2022-10-02T01:46:47.843Z,7.43
2022-10-02T01:49:48.632Z,6.75
2022-10-02T01:52:59.605Z,6.57
2022-10-02T01:56:00.771Z,5.80
2022-10-02T01:58:51.561Z,5.50
2022-10-02T02:01:24.298Z,4.55
2022-10-02T02:04:27.421Z,4.80
2022-10-02T02:07:13.528Z,4.25
2022-10-02T02:10:00.640Z,4.45
2022-10-02T02:12:53.969Z,3.88
2022-10-02T02:15:40.735Z,3.97
2022-10-02T02:18:24.922Z,3.90
2022-10-02T02:21:05.832Z,4.40
2022-10-02T02:23:38.191Z,4.82
2022-10-02T02:26:12.568Z,4.28
2022-10-02T02:31:20.989Z,3.58
2022-10-02T02:33:59.405Z,3.58
2022-10-02T02:36:35.548Z,4.57
2022-10-02T02:39:13.367Z,4.63
2022-10-02T02:41:53.760Z,3.25
2022-10-02T02:44:41.303Z,4.18
2022-10-02T02:47:22.516Z,3.97
2022-10-02T02:50:02.128Z,3.67
2022-10-02T02:52:44.664Z,3.35
2022-10-02T02:55:42.775Z,4.55
2022-10-02T02:58:26.795Z,3.60
2022-10-02T03:00:55.086Z,3.95
2022-10-02T03:03:22.171Z,3.90
2022-10-02T03:05:57.299Z,3.90
2022-10-02T03:08:34.908Z,4.20
2022-10-02T03:11:35.647Z,3.53
2022-10-02T03:15:08.414Z,4.60
2022-10-02T03:18:06.113Z,4.05
2022-10-02T03:21:13.191Z,4.78
2022-10-02T03:23:55.529Z,5.15
2022-10-02T03:26:38.450Z,4.07
2022-10-02T03:29:18.867Z,4.40
2022-10-02T03:31:48.241Z,3.78
2022-10-02T03:34:17.337Z,4.15
2022-10-02T03:36:46.826Z,3.75
2022-10-02T03:39:29.955Z,4.15
2022-10-02T03:41:57.056Z,4.05
2022-10-02T03:44:24.115Z,3.60
2022-10-02T03:46:51.083Z,4.22
2022-10-02T03:49:18.100Z,4.03
2022-10-02T03:51:45.017Z,4.68
2022-10-02T03:54:22.246Z,3.47
2022-10-02T03:57:03.352Z,4.00
2022-10-02T04:00:13.265Z,3.47
2022-10-02T04:02:57.317Z,3.60
2022-10-02T04:05:34.608Z,3.53
2022-10-02T04:08:18.047Z,3.55
2022-10-02T04:11:05.159Z,3.60
2022-10-02T04:13:50.203Z,3.25
2022-10-02T04:16:27.687Z,3.00
2022-10-02T04:19:02.935Z,3.10
2022-10-02T04:21:37.196Z,3.30
2022-10-02T04:24:31.023Z,3.45
2022-10-02T04:27:09.852Z,3.10
2022-10-02T04:30:05.799Z,2.67
2022-10-02T04:32:36.343Z,2.15
2022-10-02T04:35:32.010Z,2.90
2022-10-02T04:38:27.706Z,3.15
2022-10-02T04:41:27.446Z,3.30
2022-10-02T04:44:36.745Z,3.08
2022-10-02T04:47:49.625Z,2.85
2022-10-02T04:50:48.272Z,3.45
2022-10-02T04:53:50.588Z,2.95
2022-10-02T04:56:49.648Z,2.80
2022-10-02T04:59:48.376Z,3.20
2022-10-02T05:02:40.938Z,2.80
2022-10-02T05:05:28.997Z,2.67
2022-10-02T05:08:36.122Z,3.20
2022-10-02T05:11:21.802Z,2.67
2022-10-02T05:14:42.858Z,2.50
2022-10-02T05:17:40.098Z,3.03
2022-10-02T05:20:45.359Z,2.53
2022-10-02T05:23:37.098Z,2.70
2022-10-02T05:26:36.614Z,2.40
2022-10-02T05:29:45.255Z,2.80
2022-10-02T05:32:21.180Z,2.63
2022-10-02T05:35:12.268Z,3.13
2022-10-02T05:38:08.221Z,3.63
2022-10-02T05:41:17.291Z,3.65
2022-10-02T05:44:22.900Z,3.72
2022-10-02T05:47:05.551Z,4.50
2022-10-02T05:49:44.757Z,3.90
2022-10-02T05:52:23.511Z,4.60
2022-10-02T05:54:58.602Z,4.55
2022-10-02T05:58:05.048Z,4.18
2022-10-02T06:00:40.921Z,4.75
2022-10-02T06:03:16.592Z,5.05
2022-10-02T06:06:04.875Z,5.28
2022-10-02T06:08:43.357Z,5.05
2022-10-02T06:11:22.177Z,4.97
2022-10-02T06:14:06.862Z,5.20
2022-10-02T06:19:26.973Z,4.97
2022-10-02T06:22:19.807Z,5.00
2022-10-02T06:25:04.282Z,5.38
2022-10-02T06:27:56.970Z,6.40
2022-10-02T06:30:23.978Z,5.40
2022-10-02T06:33:23.343Z,5.78
2022-10-02T06:36:22.967Z,6.03
2022-10-02T06:39:19.963Z,6.30
2022-10-02T06:42:22.065Z,6.15
2022-10-02T06:45:14.344Z,7.30
2022-10-02T06:48:24.646Z,6.97
2022-10-02T06:51:09.287Z,7.03
2022-10-02T06:57:28.614Z,6.75
2022-10-02T07:00:18.188Z,7.20
2022-10-02T07:03:32.729Z,7.88
2022-10-02T07:06:36.157Z,7.78
2022-10-02T07:09:23.418Z,8.52
2022-10-02T07:12:51.586Z,8.50
2022-10-02T07:15:48.593Z,7.90
2022-10-02T07:19:16.350Z,8.75
2022-10-02T07:22:43.545Z,7.95
2022-10-02T07:25:41.688Z,8.27
2022-10-02T07:28:34.199Z,8.07
2022-10-02T07:31:23.098Z,8.75
2022-10-02T07:34:17.066Z,7.47
2022-10-02T07:37:16.103Z,7.38
2022-10-02T07:40:11.778Z,7.25
2022-10-02T07:42:50.973Z,7.68
2022-10-02T07:45:42.353Z,6.20
2022-10-02T07:48:44.219Z,6.35
2022-10-02T07:51:47.534Z,6.68
2022-10-02T07:55:01.382Z,7.15
2022-10-02T07:58:12.664Z,6.47
2022-10-02T08:00:47.413Z,6.05
2022-10-02T08:03:36.675Z,5.93
2022-10-02T08:06:06.364Z,6.07
2022-10-02T08:08:51.459Z,6.07
2022-10-02T08:11:50.153Z,5.15
2022-10-02T08:14:25.937Z,6.30
2022-10-02T08:17:16.434Z,5.93
2022-10-02T08:19:51.622Z,6.07
2022-10-02T08:22:46.108Z,6.07
2022-10-02T08:25:25.129Z,5.38
2022-10-02T08:28:09.765Z,5.78
2022-10-02T08:30:37.529Z,6.40
2022-10-02T08:33:22.713Z,6.82
2022-10-02T08:36:25.704Z,5.25
2022-10-02T08:39:35.404Z,5.78
2022-10-02T08:42:49.807Z,5.70
2022-10-02T08:46:07.592Z,5.60
2022-10-02T08:49:15.135Z,5.60
2022-10-02T08:52:14.021Z,5.05
2022-10-02T08:55:06.729Z,5.30
2022-10-02T08:58:48.845Z,5.50
2022-10-02T09:01:31.590Z,5.25
2022-10-02T09:04:28.231Z,5.10
2022-10-02T09:07:07.123Z,5.45
2022-10-02T09:09:42.959Z,4.55
2022-10-02T09:12:30.183Z,4.72
2022-10-02T09:15:18.931Z,4.43
2022-10-02T09:18:25.411Z,3.72
2022-10-02T09:21:23.416Z,3.38
2022-10-02T09:24:27.624Z,3.60
2022-10-02T09:27:33.823Z,2.17
2022-10-02T09:30:29.789Z,2.25
2022-10-02T09:33:46.307Z,2.50
2022-10-02T09:36:49.344Z,2.30
2022-10-02T09:39:31.640Z,2.28
2022-10-02T09:42:23.476Z,1.83
2022-10-02T09:45:13.984Z,2.15
2022-10-02T09:48:17.909Z,2.10
2022-10-02T09:51:20.661Z,1.75
2022-10-02T09:54:03.060Z,2.30
2022-10-02T09:56:48.312Z,2.40
2022-10-02T09:59:49.082Z,1.90
2022-10-02T10:02:50.719Z,2.28
2022-10-02T10:06:05.027Z,2.22
2022-10-02T10:09:10.746Z,1.70
2022-10-02T10:12:25.841Z,2.03
2022-10-02T10:15:33.823Z,1.77
2022-10-02T10:18:34.141Z,2.03
2022-10-02T10:21:29.387Z,1.70
2022-10-02T10:24:34.737Z,1.63
2022-10-02T10:27:36.701Z,2.03
2022-10-02T10:30:07.004Z,1.85
2022-10-02T10:32:52.600Z,1.92
2022-10-02T10:36:32.224Z,1.85
2022-10-02T10:39:57.618Z,2.20
2022-10-02T10:43:07.938Z,1.73
2022-10-02T10:45:56.989Z,1.27
2022-10-02T10:48:35.052Z,1.92
2022-10-02T10:51:14.279Z,1.40
2022-10-02T10:54:21.367Z,1.38
2022-10-02T10:57:31.973Z,1.85
2022-10-02T11:00:36.377Z,1.90
2022-10-02T11:03:51.520Z,1.77
2022-10-02T11:07:07.898Z,2.35
2022-10-02T11:10:31.669Z,1.58
2022-10-02T11:13:23.733Z,1.70
2022-10-02T11:16:37.327Z,1.65
2022-10-02T11:19:45.841Z,1.98
2022-10-02T11:22:49.976Z,1.30
2022-10-02T11:26:07.850Z,1.70
2022-10-02T11:28:58.871Z,1.42
2022-10-02T11:31:30.382Z,1.35
2022-10-02T11:34:25.269Z,1.60
2022-10-02T11:39:59.805Z,1.33
2022-10-02T11:42:50.443Z,1.35
2022-10-02T11:45:41.769Z,1.52
2022-10-02T11:48:50.913Z,1.60
2022-10-02T11:51:50.861Z,1.73
2022-10-02T11:55:18.320Z,1.67
2022-10-02T11:57:48.046Z,1.40
2022-10-02T12:00:41.261Z,1.38
2022-10-02T12:03:50.987Z,1.63
2022-10-02T12:06:36.450Z,1.83
2022-10-02T12:09:43.260Z,1.38
2022-10-02T12:12:52.709Z,1.58
2022-10-02T12:15:34.583Z,1.73
2022-10-02T12:18:21.654Z,1.73
2022-10-02T12:21:31.849Z,1.63
2022-10-02T12:24:54.837Z,1.70
2022-10-02T12:28:05.826Z,1.77
2022-10-02T12:30:54.191Z,1.50
2022-10-02T12:33:33.159Z,1.65
2022-10-02T12:36:36.134Z,1.45
2022-10-02T12:39:27.263Z,1.40
2022-10-02T12:42:15.687Z,1.60
2022-10-02T12:45:13.692Z,1.70
2022-10-02T12:48:18.562Z,1.73
2022-10-02T12:51:29.991Z,1.85
2022-10-02T12:54:34.140Z,1.20
2022-10-02T12:57:47.132Z,1.70
2022-10-02T13:00:18.798Z,1.60
2022-10-02T13:03:28.364Z,1.85
2022-10-02T13:06:18.008Z,1.50
2022-10-02T13:09:29.946Z,1.60
2022-10-02T13:13:05.884Z,1.80
2022-10-02T13:16:05.529Z,1.55
2022-10-02T13:19:08.700Z,1.63
2022-10-02T13:22:10.058Z,1.80
2022-10-02T13:25:24.634Z,1.45
2022-10-02T13:28:08.452Z,1.55
2022-10-02T13:31:07.401Z,1.80
2022-10-02T13:34:06.241Z,1.15
2022-10-02T13:36:57.079Z,1.00
2022-10-02T13:40:18.084Z,1.17
2022-10-02T13:42:48.041Z,1.17
2022-10-02T13:45:41.536Z,1.60
2022-10-02T13:48:47.640Z,1.30
2022-10-02T13:51:32.772Z,1.15
2022-10-02T13:54:20.469Z,1.23
2022-10-02T13:57:17.745Z,1.05
2022-10-02T14:00:23.732Z,1.35
2022-10-02T14:02:50.739Z,1.08
2022-10-02T14:06:02.903Z,1.33
2022-10-02T14:08:57.416Z,1.48
2022-10-02T14:11:47.076Z,1.08
2022-10-02T14:14:39.773Z,1.67
2022-10-02T14:17:15.560Z,1.30
2022-10-02T14:20:02.783Z,1.45
2022-10-02T14:22:44.589Z,1.30
2022-10-02T14:26:06.030Z,1.58
2022-10-02T14:29:17.436Z,1.30
2022-10-02T14:32:24.251Z,1.00
2022-10-02T14:35:19.479Z,1.27
2022-10-02T14:38:19.989Z,1.20
2022-10-02T14:40:57.546Z,0.90
2022-10-02T14:43:50.130Z,1.30
2022-10-02T14:46:49.478Z,1.50
2022-10-02T14:49:34.738Z,1.30
2022-10-02T14:52:43.751Z,1.10
2022-10-02T14:55:49.080Z,1.60
2022-10-02T14:58:40.960Z,1.92
2022-10-02T15:01:26.452Z,1.20
2022-10-02T15:04:16.052Z,1.00
2022-10-02T15:07:04.756Z,1.25
2022-10-02T15:10:18.694Z,1.00
2022-10-02T15:13:01.618Z,1.27
2022-10-02T15:15:46.757Z,1.20
2022-10-02T15:18:40.582Z,1.27
2022-10-02T15:21:08.019Z,1.00
2022-10-02T15:23:50.836Z,1.27
2022-10-02T15:26:40.560Z,0.90
2022-10-02T15:29:38.389Z,1.35
2022-10-02T15:32:31.231Z,1.10
2022-10-02T15:35:24.316Z,1.60
2022-10-02T15:38:08.538Z,1.30
2022-10-02T15:40:47.674Z,1.10
2022-10-02T15:43:34.280Z,1.15
2022-10-02T15:46:32.675Z,1.25
2022-10-02T15:49:33.860Z,1.38
2022-10-02T15:52:51.943Z,1.10
2022-10-02T15:55:41.943Z,1.35
2022-10-02T15:58:30.303Z,1.10
2022-10-02T16:01:45.970Z,1.25
2022-10-02T16:04:34.991Z,1.30
2022-10-02T16:07:45.407Z,1.48
2022-10-02T16:10:36.595Z,1.33
2022-10-02T16:13:46.315Z,1.98
2022-10-02T16:16:37.902Z,1.40
2022-10-02T16:19:45.155Z,1.27
2022-10-02T16:22:34.570Z,1.55
2022-10-02T16:25:36.523Z,1.50
2022-10-02T16:28:46.975Z,1.55
2022-10-02T16:32:05.539Z,1.70
2022-10-02T16:34:47.449Z,1.67
2022-10-02T16:37:36.039Z,1.70
2022-10-02T16:40:22.947Z,1.45
2022-10-02T16:43:34.777Z,1.58
2022-10-02T16:46:25.387Z,1.40
2022-10-02T16:49:17.371Z,1.58
2022-10-02T16:52:31.823Z,1.77
2022-10-02T16:55:28.769Z,1.20
2022-10-02T16:58:13.624Z,1.83
2022-10-02T17:00:57.166Z,1.65
2022-10-02T17:03:44.735Z,1.70
2022-10-02T17:06:28.481Z,1.73
2022-10-02T17:09:23.973Z,1.70
2022-10-02T17:12:15.438Z,1.35
2022-10-02T17:15:00.895Z,2.08
2022-10-02T17:17:42.815Z,1.13
2022-10-02T17:20:24.698Z,1.80
2022-10-02T17:23:14.939Z,1.95
2022-10-02T17:26:14.620Z,2.28
2022-10-02T17:28:58.275Z,1.75
2022-10-02T17:31:54.616Z,1.83
2022-10-02T17:34:44.263Z,1.98
2022-10-02T17:37:16.167Z,1.55
2022-10-02T17:40:05.275Z,1.85
2022-10-02T17:43:42.379Z,1.70
2022-10-02T17:46:49.628Z,1.75
2022-10-02T17:49:50.652Z,1.52
2022-10-02T17:52:42.179Z,1.80
2022-10-02T17:55:52.654Z,1.80
2022-10-02T17:59:21.396Z,1.70
2022-10-02T18:02:09.855Z,1.95
2022-10-02T18:04:59.202Z,1.50
2022-10-02T18:07:53.309Z,1.70
2022-10-02T18:11:01.204Z,2.00
2022-10-02T18:13:56.048Z,1.60
2022-10-02T18:17:06.075Z,2.00
2022-10-02T18:19:54.938Z,1.80
2022-10-02T18:23:06.883Z,1.90
2022-10-02T18:25:50.958Z,2.10
2022-10-02T18:28:24.670Z,1.90
2022-10-02T18:31:55.196Z,1.65
2022-10-02T18:35:05.763Z,2.20
2022-10-02T18:37:58.906Z,2.15
2022-10-02T18:40:43.810Z,2.42
2022-10-02T18:43:52.144Z,2.13
2022-10-02T18:46:33.188Z,2.35
2022-10-02T18:49:27.530Z,2.08
2022-10-02T18:52:05.580Z,3.60
2022-10-02T18:55:17.108Z,5.35
2022-10-02T18:58:20.202Z,4.45
2022-10-02T19:00:59.644Z,3.50
2022-10-02T19:03:58.312Z,3.50
2022-10-02T19:06:33.956Z,3.30
2022-10-02T19:09:06.759Z,3.15
2022-10-02T19:12:13.664Z,2.80
2022-10-02T19:14:46.331Z,2.85
2022-10-02T19:17:17.882Z,2.83
2022-10-02T19:19:44.970Z,3.20
2022-10-02T19:22:27.519Z,2.83
2022-10-02T19:25:20.266Z,2.58
2022-10-02T19:27:55.067Z,2.53
2022-10-02T19:30:26.812Z,2.72
2022-10-02T19:33:07.996Z,2.35
2022-10-02T19:35:44.282Z,2.38
2022-10-02T19:38:14.152Z,2.70
2022-10-02T19:40:42.216Z,2.45
2022-10-02T19:43:33.770Z,2.45
2022-10-02T19:46:08.467Z,2.78
2022-10-02T19:48:36.209Z,2.90
2022-10-02T19:51:07.894Z,2.63
2022-10-02T19:53:44.991Z,3.33
2022-10-02T19:56:24.379Z,2.92
2022-10-02T19:59:00.806Z,2.88
2022-10-02T20:01:42.065Z,2.90
2022-10-02T20:04:25.796Z,2.60
2022-10-02T20:07:00.623Z,2.58
2022-10-02T20:09:46.296Z,2.70
2022-10-02T20:12:32.040Z,3.10
2022-10-02T20:15:42.447Z,2.97
2022-10-02T20:18:14.439Z,2.95
2022-10-02T20:20:47.093Z,2.92
2022-10-02T20:23:27.228Z,3.10
2022-10-02T20:25:59.919Z,2.80
2022-10-02T20:28:51.988Z,2.67
2022-10-02T20:31:43.420Z,2.97
2022-10-02T20:34:28.884Z,3.13
2022-10-02T20:37:08.431Z,2.92
2022-10-02T20:39:55.888Z,2.80
2022-10-02T20:42:40.652Z,2.70
2022-10-02T20:45:12.935Z,3.17
2022-10-02T20:48:15.793Z,2.50
2022-10-02T20:50:57.492Z,2.95
2022-10-02T20:54:01.450Z,2.60
2022-10-02T20:57:20.258Z,2.65
2022-10-02T21:00:14.920Z,3.17
2022-10-02T21:03:21.654Z,2.67
2022-10-02T21:06:20.143Z,3.05
2022-10-02T21:09:05.023Z,3.17
2022-10-02T21:12:00.901Z,3.35
2022-10-02T21:14:53.202Z,3.15
2022-10-02T21:17:57.651Z,2.85
2022-10-02T21:21:08.514Z,2.70
2022-10-02T21:23:45.232Z,3.45
2022-10-02T21:27:09.586Z,3.28
2022-10-02T21:30:05.967Z,3.40
2022-10-02T21:33:20.586Z,3.47
2022-10-02T21:36:05.987Z,3.67
2022-10-02T21:39:24.163Z,3.30
2022-10-02T21:42:13.323Z,4.30
2022-10-02T21:45:17.595Z,3.55
2022-10-02T21:48:29.202Z,3.50
2022-10-02T21:51:27.058Z,3.83
2022-10-02T21:54:36.267Z,3.75
2022-10-02T21:57:27.876Z,3.75
2022-10-02T22:00:28.742Z,3.17
2022-10-02T22:03:10.152Z,3.60
2022-10-02T22:05:52.043Z,3.60
2022-10-02T22:08:42.513Z,4.05
2022-10-02T22:11:37.190Z,3.85
2022-10-02T22:14:29.376Z,3.92
2022-10-02T22:17:23.792Z,3.60
2022-10-02T22:20:12.795Z,3.65
2022-10-02T22:23:13.387Z,3.40
2022-10-02T22:26:18.679Z,4.68
2022-10-02T22:28:51.335Z,3.80
2022-10-02T22:31:35.699Z,4.07
2022-10-02T22:37:27.164Z,3.55
2022-10-02T22:40:11.086Z,3.50
2022-10-02T22:42:47.743Z,3.33
2022-10-02T22:45:46.346Z,3.60
2022-10-02T22:48:35.479Z,3.28
2022-10-02T22:51:23.001Z,3.92
2022-10-02T22:54:02.762Z,3.38
2022-10-02T22:56:40.216Z,3.72
2022-10-02T22:59:48.587Z,3.42
2022-10-02T23:02:37.491Z,3.33
2022-10-02T23:05:15.147Z,3.78
2022-10-02T23:07:53.799Z,4.75
2022-10-02T23:10:39.567Z,4.35
2022-10-02T23:13:26.420Z,4.95
2022-10-02T23:16:03.557Z,4.20
2022-10-02T23:18:41.951Z,4.60
2022-10-02T23:21:47.818Z,4.60
2022-10-02T23:24:28.518Z,4.00
2022-10-02T23:27:23.867Z,4.30
2022-10-02T23:30:05.078Z,4.07
2022-10-02T23:32:57.800Z,4.00
2022-10-02T23:35:54.187Z,4.40
2022-10-02T23:38:29.573Z,4.20
2022-10-02T23:41:32.184Z,3.50
2022-10-02T23:44:19.632Z,4.35
2022-10-02T23:46:49.776Z,4.00
2022-10-02T23:49:20.804Z,3.75
2022-10-02T23:52:17.215Z,3.47
2022-10-02T23:55:14.109Z,4.28
2022-10-02T23:58:11.280Z,4.20
